Time;durP1;ratioP1;P1;durP2;ratioP2;P2;SDS_P1;SDS_P2;PMS_P1;PMS_P2;Temp;Humidity;BMP_temperature;BMP_pressure;BME280_temperature;BME280_humidity;BME280_pressure;Samples;Min_cycle;Max_cycle;Signal;HPM_P1;HPM_P2
2021/07/05 00:01:38;;;;;;;3.65;1.05;;;;;;;;;;4923302;29;20031;-82
2021/07/05 00:04:23;;;;;;;2.88;1.20;;;;;;;;;;4930543;29;20777;-82
2021/07/05 00:07:08;;;;;;;1.70;1.00;;;;;;;;;;4918342;29;20509;-81
2021/07/05 00:09:54;;;;;;;1.80;1.00;;;;;;;;;;4927834;29;20023;-81
2021/07/05 00:12:44;;;;;;;3.08;1.13;;;;;;;;;;4928123;29;20781;-82
2021/07/05 00:15:31;;;;;;;4.38;1.45;;;;;;;;;;4918482;29;20051;-81
2021/07/05 00:18:16;;;;;;;1.75;1.17;;;;;;;;;;4929872;29;20032;-82
2021/07/05 00:21:01;;;;;;;1.25;0.90;;;;;;;;;;4923816;29;20020;-81
2021/07/05 00:23:46;;;;;;;1.13;0.93;;;;;;;;;;4933367;29;20399;-80
2021/07/05 00:26:32;;;;;;;1.90;1.20;;;;;;;;;;4932387;29;20023;-80
2021/07/05 00:29:17;;;;;;;1.27;1.17;;;;;;;;;;4936891;29;20043;-81
2021/07/05 00:32:03;;;;;;;6.57;1.40;;;;;;;;;;4927147;29;20056;-78
2021/07/05 00:34:48;;;;;;;2.97;1.13;;;;;;;;;;4913618;29;20030;-78
2021/07/05 00:37:35;;;;;;;2.75;1.50;;;;;;;;;;4934022;29;20495;-77
2021/07/05 00:40:21;;;;;;;3.58;1.25;;;;;;;;;;4928268;29;20031;-78
2021/07/05 00:43:06;;;;;;;2.33;1.35;;;;;;;;;;4926502;29;20023;-78
2021/07/05 00:45:51;;;;;;;4.10;1.67;;;;;;;;;;4928968;29;20110;-78
2021/07/05 00:48:37;;;;;;;1.88;1.38;;;;;;;;;;4930254;29;20031;-78
2021/07/05 00:51:23;;;;;;;1.20;1.05;;;;;;;;;;4930302;29;20564;-78
2021/07/05 00:54:08;;;;;;;2.70;1.20;;;;;;;;;;4922031;29;20043;-78
2021/07/05 00:56:53;;;;;;;2.60;1.00;;;;;;;;;;4924750;29;20633;-78
2021/07/05 00:59:39;;;;;;;2.80;1.15;;;;;;;;;;4935317;29;20113;-78
2021/07/05 01:02:25;;;;;;;1.65;1.02;;;;;;;;;;4928969;29;20032;-78
2021/07/05 01:05:11;;;;;;;4.57;1.10;;;;;;;;;;4935331;29;20086;-78
2021/07/05 01:07:56;;;;;;;4.25;1.30;;;;;;;;;;4931711;29;20054;-78
2021/07/05 01:10:42;;;;;;;1.58;1.08;;;;;;;;;;4931904;29;20513;-78
2021/07/05 01:13:27;;;;;;;3.00;1.20;;;;;;;;;;4929736;29;20450;-78
2021/07/05 01:16:12;;;;;;;3.72;1.40;;;;;;;;;;4925079;29;20688;-78
2021/07/05 01:18:58;;;;;;;1.80;1.48;;;;;;;;;;4931959;29;20410;-78
2021/07/05 01:21:43;;;;;;;2.30;1.27;;;;;;;;;;4920085;29;20031;-78
2021/07/05 01:24:28;;;;;;;1.55;1.45;;;;;;;;;;4930938;29;20418;-78
2021/07/05 01:27:14;;;;;;;5.65;1.20;;;;;;;;;;4932447;29;20039;-78
2021/07/05 01:29:59;;;;;;;2.15;1.27;;;;;;;;;;4929818;29;20178;-78
2021/07/05 01:32:45;;;;;;;1.92;1.27;;;;;;;;;;4930213;29;20506;-77
2021/07/05 01:35:31;;;;;;;3.30;1.25;;;;;;;;;;4929392;29;20043;-76
2021/07/05 01:38:19;;;;;;;3.40;1.30;;;;;;;;;;4928122;29;20035;-77
2021/07/05 01:41:06;;;;;;;3.97;1.30;;;;;;;;;;4932549;29;20031;-77
2021/07/05 01:43:51;;;;;;;5.00;1.15;;;;;;;;;;4942643;28;20023;-78
2021/07/05 01:46:37;;;;;;;4.93;1.35;;;;;;;;;;4930769;29;20032;-77
2021/07/05 01:49:22;;;;;;;2.83;1.27;;;;;;;;;;4924531;29;20598;-78
2021/07/05 01:52:07;;;;;;;3.28;1.25;;;;;;;;;;4932051;29;20148;-78
2021/07/05 01:54:53;;;;;;;10.40;1.92;;;;;;;;;;4934268;29;20020;-78
2021/07/05 01:57:38;;;;;;;3.25;1.35;;;;;;;;;;4934274;29;20019;-79
2021/07/05 02:00:24;;;;;;;2.00;1.38;;;;;;;;;;4931678;29;20027;-78
2021/07/05 02:03:09;;;;;;;2.55;1.15;;;;;;;;;;4937433;29;20022;-78
2021/07/05 02:05:54;;;;;;;2.38;1.30;;;;;;;;;;4917394;29;20034;-78
2021/07/05 02:08:39;;;;;;;1.80;1.17;;;;;;;;;;4933326;29;20074;-78
2021/07/05 02:11:25;;;;;;;5.00;1.15;;;;;;;;;;4930409;29;20724;-78
2021/07/05 02:14:10;;;;;;;2.90;1.42;;;;;;;;;;4932591;29;20047;-78
2021/07/05 02:16:55;;;;;;;1.45;1.00;;;;;;;;;;4935751;29;20031;-77
2021/07/05 02:19:41;;;;;;;2.53;1.20;;;;;;;;;;4927110;29;20031;-77
2021/07/05 02:22:26;;;;;;;6.13;1.20;;;;;;;;;;4934170;29;20113;-77
2021/07/05 02:25:13;;;;;;;4.57;1.55;;;;;;;;;;4929934;29;20027;-77
2021/07/05 02:27:59;;;;;;;1.20;1.10;;;;;;;;;;4933317;29;20035;-77
2021/07/05 02:30:46;;;;;;;4.40;1.65;;;;;;;;;;4931751;29;20031;-78
2021/07/05 02:33:31;;;;;;;3.05;1.20;;;;;;;;;;4934161;29;20048;-78
2021/07/05 02:36:17;;;;;;;1.30;1.20;;;;;;;;;;4926777;29;20111;-77
2021/07/05 02:39:03;;;;;;;4.47;1.25;;;;;;;;;;4940338;29;20079;-78
2021/07/05 02:41:49;;;;;;;2.25;1.42;;;;;;;;;;4927379;29;20031;-77
2021/07/05 02:44:34;;;;;;;3.38;1.25;;;;;;;;;;4918455;29;20038;-77
2021/07/05 02:47:20;;;;;;;1.40;0.90;;;;;;;;;;4943537;29;20093;-78
2021/07/05 02:50:07;;;;;;;4.90;1.40;;;;;;;;;;4924968;29;20020;-77
2021/07/05 02:52:52;;;;;;;1.70;1.23;;;;;;;;;;4919383;29;20031;-79
2021/07/05 02:55:37;;;;;;;5.57;1.13;;;;;;;;;;4924386;29;20035;-81
2021/07/05 02:58:23;;;;;;;2.90;1.30;;;;;;;;;;4920024;29;20043;-79
2021/07/05 03:01:08;;;;;;;3.92;1.70;;;;;;;;;;4930183;29;20316;-77
2021/07/05 03:03:54;;;;;;;2.28;1.13;;;;;;;;;;4920046;29;20024;-78
2021/07/05 03:06:39;;;;;;;2.10;1.25;;;;;;;;;;4915095;29;20041;-78
2021/07/05 03:09:24;;;;;;;3.40;1.27;;;;;;;;;;4937108;29;20594;-78
2021/07/05 03:12:12;;;;;;;2.67;1.13;;;;;;;;;;4930740;28;20026;-78
2021/07/05 03:14:57;;;;;;;2.20;1.05;;;;;;;;;;4930018;29;20494;-78
2021/07/05 03:17:44;;;;;;;4.25;1.40;;;;;;;;;;4924451;29;20061;-78
2021/07/05 03:20:31;;;;;;;2.10;1.40;;;;;;;;;;4930797;29;20022;-77
2021/07/05 03:23:17;;;;;;;2.45;1.48;;;;;;;;;;4930649;29;20042;-78
2021/07/05 03:26:02;;;;;;;1.98;1.30;;;;;;;;;;4931420;29;20115;-78
2021/07/05 03:28:48;;;;;;;1.65;1.13;;;;;;;;;;4934628;29;20483;-78
2021/07/05 03:31:33;;;;;;;3.47;1.15;;;;;;;;;;4934023;29;20101;-79
2021/07/05 03:34:18;;;;;;;3.30;0.95;;;;;;;;;;4926747;29;20051;-78
2021/07/05 03:37:03;;;;;;;4.05;1.60;;;;;;;;;;4925480;29;20028;-78
2021/07/05 03:39:49;;;;;;;3.85;1.73;;;;;;;;;;4935074;29;20043;-78
2021/07/05 03:42:34;;;;;;;3.33;1.17;;;;;;;;;;4929874;29;20019;-77
2021/07/05 03:45:20;;;;;;;2.63;1.20;;;;;;;;;;4932201;29;20024;-78
2021/07/05 03:48:06;;;;;;;3.00;1.38;;;;;;;;;;4921530;29;20088;-78
2021/07/05 03:50:51;;;;;;;4.25;1.45;;;;;;;;;;4934969;29;20019;-78
2021/07/05 03:53:36;;;;;;;9.18;1.50;;;;;;;;;;4925059;29;20377;-79
2021/07/05 03:56:22;;;;;;;2.30;1.25;;;;;;;;;;4933760;29;20478;-77
2021/07/05 03:59:07;;;;;;;3.72;1.45;;;;;;;;;;4931361;29;20058;-77
2021/07/05 04:01:52;;;;;;;2.83;1.20;;;;;;;;;;4918037;29;20023;-77
2021/07/05 04:04:37;;;;;;;2.20;1.42;;;;;;;;;;4924813;29;20398;-77
2021/07/05 04:07:23;;;;;;;5.38;2.35;;;;;;;;;;4930811;29;20512;-77
2021/07/05 04:10:09;;;;;;;5.38;1.50;;;;;;;;;;4931247;29;20785;-78
2021/07/05 04:12:55;;;;;;;3.47;1.52;;;;;;;;;;4925066;29;20107;-78
2021/07/05 04:15:40;;;;;;;4.07;1.25;;;;;;;;;;4933000;29;20098;-78
2021/07/05 04:18:25;;;;;;;2.75;1.38;;;;;;;;;;4923514;29;20127;-78
2021/07/05 04:21:10;;;;;;;4.75;1.58;;;;;;;;;;4934667;29;20393;-78
2021/07/05 04:23:56;;;;;;;3.80;1.58;;;;;;;;;;4931029;29;20385;-77
2021/07/05 04:26:41;;;;;;;1.40;1.30;;;;;;;;;;4935524;29;20028;-78
2021/07/05 04:29:26;;;;;;;2.22;1.30;;;;;;;;;;4936293;29;20046;-78
2021/07/05 04:32:11;;;;;;;4.93;1.80;;;;;;;;;;4932571;29;20502;-78
2021/07/05 04:34:57;;;;;;;5.75;1.85;;;;;;;;;;4926232;29;20032;-77
2021/07/05 04:37:43;;;;;;;6.43;1.80;;;;;;;;;;4939105;29;20297;-78
2021/07/05 04:40:32;;;;;;;2.38;1.70;;;;;;;;;;4934339;29;20031;-78
2021/07/05 04:43:18;;;;;;;2.63;1.70;;;;;;;;;;4934684;29;20066;-77
2021/07/05 04:46:05;;;;;;;4.03;1.80;;;;;;;;;;4930609;29;20027;-77
2021/07/05 04:48:50;;;;;;;6.97;1.50;;;;;;;;;;4917528;29;20058;-78
2021/07/05 04:51:35;;;;;;;4.60;1.70;;;;;;;;;;4932827;29;20019;-78
2021/07/05 04:54:21;;;;;;;1.52;1.33;;;;;;;;;;4921731;29;20039;-79
2021/07/05 04:57:06;;;;;;;5.75;1.75;;;;;;;;;;4925342;29;20079;-78
2021/07/05 04:59:51;;;;;;;4.40;1.50;;;;;;;;;;4934074;29;20039;-80
2021/07/05 05:02:37;;;;;;;4.70;1.75;;;;;;;;;;4929748;29;20026;-78
2021/07/05 05:05:22;;;;;;;4.30;1.70;;;;;;;;;;4936748;29;20452;-81
2021/07/05 05:08:08;;;;;;;3.65;1.42;;;;;;;;;;4939238;29;20031;-82
2021/07/05 05:10:53;;;;;;;11.43;1.95;;;;;;;;;;4930321;29;20028;-82
2021/07/05 05:13:38;;;;;;;4.22;1.75;;;;;;;;;;4921681;29;20035;-78
2021/07/05 05:16:23;;;;;;;5.28;1.60;;;;;;;;;;4926030;29;20491;-78
2021/07/05 05:19:09;;;;;;;2.47;1.48;;;;;;;;;;4923142;29;20102;-79
2021/07/05 05:21:54;;;;;;;3.03;1.63;;;;;;;;;;4933825;29;20058;-80
2021/07/05 05:24:39;;;;;;;3.38;1.70;;;;;;;;;;4928565;29;20028;-80
2021/07/05 05:27:24;;;;;;;4.15;1.60;;;;;;;;;;4929188;29;20094;-80
2021/07/05 05:30:11;;;;;;;5.93;1.70;;;;;;;;;;4930090;29;20039;-80
2021/07/05 05:32:56;;;;;;;3.83;1.52;;;;;;;;;;4925721;29;20126;-78
2021/07/05 05:35:41;;;;;;;2.63;1.60;;;;;;;;;;4932748;29;20023;-82
2021/07/05 05:38:26;;;;;;;2.03;1.45;;;;;;;;;;4926655;29;20035;-80
2021/07/05 05:41:12;;;;;;;4.82;1.50;;;;;;;;;;4932345;29;20023;-81
2021/07/05 05:44:00;;;;;;;3.38;1.48;;;;;;;;;;4931433;29;20027;-82
2021/07/05 05:46:46;;;;;;;3.50;1.57;;;;;;;;;;4929541;29;20043;-79
2021/07/05 05:49:31;;;;;;;5.72;1.73;;;;;;;;;;4926821;29;20039;-82
2021/07/05 05:52:16;;;;;;;5.47;1.60;;;;;;;;;;4924289;29;20032;-82
2021/07/05 05:55:03;;;;;;;2.17;1.50;;;;;;;;;;4929580;29;20027;-83
2021/07/05 05:57:49;;;;;;;31.50;22.30;;;;;;;;;;4930336;29;20386;-82
2021/07/05 06:00:34;;;;;;;9.00;6.45;;;;;;;;;;4933174;29;20031;-82
2021/07/05 06:03:19;;;;;;;4.88;2.70;;;;;;;;;;4931605;29;20086;-79
2021/07/05 06:06:05;;;;;;;3.22;1.88;;;;;;;;;;4927153;29;20035;-82
2021/07/05 06:08:50;;;;;;;4.43;1.60;;;;;;;;;;4929939;29;20042;-80
2021/07/05 06:11:37;;;;;;;10.15;2.00;;;;;;;;;;4930834;29;20023;-78
2021/07/05 06:14:22;;;;;;;5.80;1.92;;;;;;;;;;4926683;28;20039;-80
2021/07/05 06:17:07;;;;;;;4.18;1.60;;;;;;;;;;4938232;29;20024;-89
2021/07/05 06:19:52;;;;;;;3.42;1.83;;;;;;;;;;4924268;28;20090;-84
2021/07/05 06:22:54;;;;;;;4.63;2.85;;;;;;;;;;4935930;28;20034;-82
2021/07/05 06:25:39;;;;;;;11.25;6.13;;;;;;;;;;4938493;29;20054;-80
2021/07/05 06:28:25;;;;;;;6.10;3.80;;;;;;;;;;4928034;28;20030;-81
2021/07/05 06:31:10;;;;;;;7.30;2.58;;;;;;;;;;4937666;28;20046;-80
2021/07/05 06:33:56;;;;;;;1.88;1.65;;;;;;;;;;4937766;28;20035;-82
2021/07/05 06:36:41;;;;;;;2.95;1.38;;;;;;;;;;4933940;29;20509;-82
2021/07/05 06:39:26;;;;;;;3.30;1.77;;;;;;;;;;4933827;28;20032;-82
2021/07/05 06:42:11;;;;;;;4.90;1.90;;;;;;;;;;4935451;28;20114;-82
2021/07/05 06:45:00;;;;;;;3.85;1.67;;;;;;;;;;4935378;29;20043;-92
2021/07/05 06:47:46;;;;;;;2.28;1.90;;;;;;;;;;4948345;28;20035;-91
2021/07/05 06:50:31;;;;;;;4.65;2.28;;;;;;;;;;4929905;28;20051;-83
2021/07/05 06:53:16;;;;;;;4.07;1.92;;;;;;;;;;4942746;28;20503;-90
2021/07/05 06:56:02;;;;;;;5.53;2.67;;;;;;;;;;4934715;28;20394;-84
2021/07/05 06:58:48;;;;;;;5.07;2.30;;;;;;;;;;4935661;28;20034;-85
2021/07/05 07:01:36;;;;;;;5.25;1.67;;;;;;;;;;4936008;28;20130;-84
2021/07/05 07:04:22;;;;;;;6.47;1.90;;;;;;;;;;4939674;28;20144;-83
2021/07/05 07:07:07;;;;;;;3.03;1.65;;;;;;;;;;4936496;28;20078;-84
2021/07/05 07:09:53;;;;;;;2.45;1.30;;;;;;;;;;4939967;28;20030;-84
2021/07/05 07:12:38;;;;;;;2.45;1.35;;;;;;;;;;4947101;28;20027;-83
2021/07/05 07:15:34;;;;;;;2.47;1.60;;;;;;;;;;4928555;29;20048;-84
2021/07/05 07:21:05;;;;;;;7.20;1.42;;;;;;;;;;4927088;29;20467;-85
2021/07/05 07:23:51;;;;;;;2.03;1.25;;;;;;;;;;4927814;29;20549;-86
2021/07/05 07:26:36;;;;;;;4.45;1.40;;;;;;;;;;4933083;29;20390;-83
2021/07/05 07:29:24;;;;;;;3.05;1.73;;;;;;;;;;4928801;29;20034;-86
2021/07/05 07:32:09;;;;;;;2.85;1.40;;;;;;;;;;4925082;29;20083;-87
2021/07/05 07:34:55;;;;;;;3.72;1.80;;;;;;;;;;4920334;29;20462;-85
2021/07/05 07:37:41;;;;;;;4.32;1.90;;;;;;;;;;4930080;29;20115;-81
2021/07/05 07:40:30;;;;;;;2.75;1.30;;;;;;;;;;4925488;29;20446;-84
2021/07/05 07:43:15;;;;;;;3.92;1.30;;;;;;;;;;4929497;29;20028;-84
2021/07/05 07:46:00;;;;;;;3.67;1.33;;;;;;;;;;4918355;29;20378;-83
2021/07/05 07:48:45;;;;;;;5.88;1.60;;;;;;;;;;4933561;29;20047;-83
2021/07/05 07:51:31;;;;;;;2.60;1.55;;;;;;;;;;4931621;29;20087;-83
2021/07/05 07:54:16;;;;;;;4.40;2.42;;;;;;;;;;4937909;29;20046;-82
2021/07/05 07:57:02;;;;;;;5.93;3.60;;;;;;;;;;4925974;28;20027;-82
2021/07/05 07:59:47;;;;;;;3.63;1.40;;;;;;;;;;4940534;29;20035;-82
2021/07/05 08:02:32;;;;;;;4.55;1.60;;;;;;;;;;4935933;29;20523;-81
2021/07/05 08:05:17;;;;;;;2.15;1.45;;;;;;;;;;4935633;29;20039;-79
2021/07/05 08:08:03;;;;;;;3.53;1.17;;;;;;;;;;4936508;29;20391;-79
2021/07/05 08:10:48;;;;;;;5.80;1.48;;;;;;;;;;4938454;29;20393;-78
2021/07/05 08:13:33;;;;;;;3.75;1.60;;;;;;;;;;4933027;29;20028;-78
2021/07/05 08:16:18;;;;;;;2.03;1.50;;;;;;;;;;4919297;29;20039;-86
2021/07/05 08:19:04;;;;;;;4.20;1.65;;;;;;;;;;4935052;29;20031;-84
2021/07/05 08:21:49;;;;;;;2.00;1.40;;;;;;;;;;4929547;29;20490;-85
2021/07/05 08:24:34;;;;;;;4.50;2.00;;;;;;;;;;4934869;29;20564;-84
2021/07/05 08:27:19;;;;;;;10.95;6.63;;;;;;;;;;4923395;29;20631;-85
2021/07/05 08:30:05;;;;;;;22.65;18.15;;;;;;;;;;4932595;29;20504;-85
2021/07/05 08:32:52;;;;;;;3.53;1.95;;;;;;;;;;4934817;29;20039;-85
2021/07/05 08:35:38;;;;;;;6.15;2.05;;;;;;;;;;4932157;29;20027;-84
2021/07/05 08:38:23;;;;;;;3.72;1.60;;;;;;;;;;4938361;29;20455;-86
2021/07/05 08:41:08;;;;;;;2.65;1.50;;;;;;;;;;4927139;29;20655;-84
2021/07/05 08:43:54;;;;;;;3.83;1.60;;;;;;;;;;4931477;29;20039;-85
2021/07/05 08:46:41;;;;;;;3.35;1.58;;;;;;;;;;4928274;29;20604;-85
2021/07/05 08:49:26;;;;;;;3.38;1.35;;;;;;;;;;4932491;29;20178;-93
2021/07/05 08:52:11;;;;;;;2.65;1.55;;;;;;;;;;4931214;29;20031;-84
2021/07/05 08:54:57;;;;;;;4.22;1.90;;;;;;;;;;4930389;29;20410;-84
2021/07/05 08:57:42;;;;;;;2.53;1.45;;;;;;;;;;4940811;29;20084;-85
2021/07/05 09:00:28;;;;;;;2.15;1.33;;;;;;;;;;4935038;29;20118;-85
2021/07/05 09:03:14;;;;;;;2.22;1.50;;;;;;;;;;4937704;29;20019;-86
2021/07/05 09:06:14;;;;;;;3.42;1.20;;;;;;;;;;4934447;29;20108;-84
2021/07/05 09:08:59;;;;;;;2.30;1.45;;;;;;;;;;4935647;29;20395;-85
2021/07/05 09:11:46;;;;;;;4.22;1.60;;;;;;;;;;4930115;29;20032;-85
2021/07/05 09:14:34;;;;;;;3.70;1.65;;;;;;;;;;4940185;29;20054;-89
2021/07/05 09:17:22;;;;;;;2.60;1.70;;;;;;;;;;4934481;29;20023;-90
2021/07/05 09:20:14;;;;;;;2.95;1.60;;;;;;;;;;4937020;29;20464;-90
2021/07/05 09:23:13;;;;;;;3.13;1.50;;;;;;;;;;4939094;29;20026;-85
2021/07/05 09:25:58;;;;;;;3.40;1.80;;;;;;;;;;4935828;29;20023;-87
2021/07/05 09:28:43;;;;;;;3.45;1.65;;;;;;;;;;4932703;29;20042;-84
2021/07/05 09:31:41;;;;;;;2.47;1.55;;;;;;;;;;4931585;29;20038;-91
2021/07/05 09:34:30;;;;;;;4.18;2.25;;;;;;;;;;4934818;29;20031;-85
2021/07/05 09:37:23;;;;;;;4.00;1.50;;;;;;;;;;4932228;29;20085;-86
2021/07/05 09:40:10;;;;;;;1.40;1.10;;;;;;;;;;4932168;29;20032;-85
2021/07/05 09:42:55;;;;;;;1.30;1.20;;;;;;;;;;4930810;29;20083;-84
2021/07/05 09:45:41;;;;;;;2.83;1.23;;;;;;;;;;4934241;29;20030;-84
2021/07/05 09:48:26;;;;;;;2.25;0.88;;;;;;;;;;4932261;29;20027;-91
2021/07/05 09:51:14;;;;;;;1.95;1.17;;;;;;;;;;4937605;29;20131;-91
2021/07/05 09:53:59;;;;;;;2.22;1.08;;;;;;;;;;4937055;29;20030;-91
2021/07/05 09:56:45;;;;;;;2.38;1.02;;;;;;;;;;4934446;29;20793;-90
2021/07/05 09:59:30;;;;;;;3.20;1.40;;;;;;;;;;4918454;29;20082;-90
2021/07/05 10:02:16;;;;;;;15.13;8.38;;;;;;;;;;4927081;29;20040;-90
2021/07/05 10:05:12;;;;;;;9.57;2.83;;;;;;;;;;4937836;29;20019;-91
2021/07/05 10:07:58;;;;;;;1.67;1.30;;;;;;;;;;4931980;29;20038;-91
2021/07/05 10:10:45;;;;;;;1.88;1.27;;;;;;;;;;4936026;29;20681;-91
2021/07/05 10:13:31;;;;;;;3.10;1.38;;;;;;;;;;4932296;29;20024;-90
2021/07/05 10:16:16;;;;;;;3.58;1.40;;;;;;;;;;4926212;29;20060;-91
2021/07/05 10:22:59;;;;;;;1.15;0.90;;;;;;;;;;4938121;29;20449;-94
2021/07/05 10:25:45;;;;;;;3.35;1.55;;;;;;;;;;4935064;29;20043;-87
2021/07/05 10:28:31;;;;;;;1.40;0.93;;;;;;;;;;4933036;29;20114;-90
2021/07/05 10:31:16;;;;;;;1.52;1.05;;;;;;;;;;4935366;29;20513;-87
2021/07/05 10:34:02;;;;;;;2.15;1.00;;;;;;;;;;4936124;29;20019;-86
2021/07/05 10:36:49;;;;;;;1.60;0.80;;;;;;;;;;4932287;29;20043;-86
2021/07/05 10:39:35;;;;;;;2.95;1.08;;;;;;;;;;4930615;29;20083;-85
2021/07/05 10:42:28;;;;;;;2.80;1.20;;;;;;;;;;4934477;29;20035;-89
2021/07/05 10:45:17;;;;;;;1.15;0.80;;;;;;;;;;4942918;29;20031;-86
2021/07/05 10:48:02;;;;;;;2.78;1.00;;;;;;;;;;4958491;29;20054;-85
2021/07/05 10:50:49;;;;;;;1.52;1.20;;;;;;;;;;4949056;29;20394;-83
2021/07/05 10:53:37;;;;;;;2.13;0.90;;;;;;;;;;4942715;29;20024;-89
2021/07/05 10:56:26;;;;;;;2.50;1.00;;;;;;;;;;4946403;29;20023;-86
2021/07/05 10:59:11;;;;;;;1.58;1.02;;;;;;;;;;4935256;29;20051;-87
2021/07/05 11:01:56;;;;;;;1.80;1.20;;;;;;;;;;4944134;29;20035;-85
2021/07/05 11:04:47;;;;;;;0.95;0.93;;;;;;;;;;4931016;29;20106;-85
2021/07/05 11:07:43;;;;;;;1.30;0.82;;;;;;;;;;4940935;29;20040;-83
2021/07/05 11:10:31;;;;;;;2.08;1.30;;;;;;;;;;4938027;29;20027;-87
2021/07/05 11:13:18;;;;;;;1.10;0.90;;;;;;;;;;4934026;29;20050;-87
2021/07/05 11:16:04;;;;;;;1.73;1.02;;;;;;;;;;4931424;29;20043;-86
2021/07/05 11:18:49;;;;;;;2.15;1.10;;;;;;;;;;4941790;28;20034;-84
2021/07/05 11:21:38;;;;;;;1.10;0.95;;;;;;;;;;4939678;28;20030;-83
2021/07/05 11:24:43;;;;;;;2.03;1.10;;;;;;;;;;4942761;28;20046;-84
2021/07/05 11:27:31;;;;;;;1.67;0.80;;;;;;;;;;4942304;28;20481;-82
2021/07/05 11:30:16;;;;;;;2.42;0.90;;;;;;;;;;4936286;28;20553;-84
2021/07/05 11:33:01;;;;;;;2.00;1.00;;;;;;;;;;4939525;28;20478;-84
2021/07/05 11:35:53;;;;;;;1.52;1.10;;;;;;;;;;4939855;28;20042;-86
2021/07/05 11:38:40;;;;;;;2.85;1.00;;;;;;;;;;4929451;28;20045;-84
2021/07/05 11:41:27;;;;;;;4.57;1.20;;;;;;;;;;4933935;28;20028;-84
2021/07/05 11:44:15;;;;;;;1.63;1.20;;;;;;;;;;4941897;28;20026;-87
2021/07/05 11:47:00;;;;;;;1.70;1.25;;;;;;;;;;4939799;28;20027;-86
2021/07/05 11:53:12;;;;;;;1.77;1.10;;;;;;;;;;4950100;28;20422;-85
2021/07/05 11:55:58;;;;;;;2.33;1.10;;;;;;;;;;4941253;28;20024;-89
2021/07/05 11:58:43;;;;;;;3.70;1.20;;;;;;;;;;4940347;28;20114;-86
2021/07/05 12:01:29;;;;;;;2.78;1.30;;;;;;;;;;4936711;28;20465;-84
2021/07/05 12:04:15;;;;;;;3.03;1.40;;;;;;;;;;4942316;28;20397;-84
2021/07/05 12:07:01;;;;;;;1.65;1.20;;;;;;;;;;4932733;28;20031;-85
2021/07/05 12:09:50;;;;;;;1.38;1.13;;;;;;;;;;4943172;28;20104;-84
2021/07/05 12:12:35;;;;;;;4.13;2.72;;;;;;;;;;4934138;29;20038;-87
2021/07/05 12:15:22;;;;;;;2.47;1.70;;;;;;;;;;4922764;28;20106;-85
2021/07/05 12:18:07;;;;;;;2.25;1.10;;;;;;;;;;4943651;28;20023;-85
2021/07/05 12:21:00;;;;;;;1.85;1.48;;;;;;;;;;4937976;28;20117;-84
2021/07/05 12:23:48;;;;;;;1.50;1.20;;;;;;;;;;4936600;28;20386;-85
2021/07/05 12:26:49;;;;;;;3.80;1.00;;;;;;;;;;4935418;28;20032;-91
2021/07/05 12:29:46;;;;;;;3.17;1.30;;;;;;;;;;4939087;28;20022;-88
2021/07/05 12:32:33;;;;;;;1.48;1.20;;;;;;;;;;4941391;28;20051;-87
2021/07/05 12:35:20;;;;;;;3.80;1.35;;;;;;;;;;4941223;29;20102;-89
2021/07/05 12:38:10;;;;;;;3.30;2.22;;;;;;;;;;4941959;28;20078;-88
2021/07/05 12:40:55;;;;;;;7.32;4.88;;;;;;;;;;4941566;28;20091;-90
2021/07/05 12:43:40;;;;;;;1.80;1.10;;;;;;;;;;4933558;29;20134;-90
2021/07/05 12:46:26;;;;;;;3.88;1.48;;;;;;;;;;4942704;29;20035;-82
2021/07/05 12:49:11;;;;;;;2.03;1.70;;;;;;;;;;4937390;28;20514;-83
2021/07/05 12:51:56;;;;;;;2.30;1.27;;;;;;;;;;4939346;28;20034;-86
2021/07/05 12:54:42;;;;;;;2.10;1.17;;;;;;;;;;4937447;28;20023;-83
2021/07/05 12:57:27;;;;;;;13.85;9.95;;;;;;;;;;4942660;28;20031;-85
2021/07/05 13:00:12;;;;;;;5.70;2.25;;;;;;;;;;4947712;28;20058;-84
2021/07/05 13:03:12;;;;;;;4.30;1.30;;;;;;;;;;4941373;28;20114;-85
2021/07/05 13:06:05;;;;;;;2.30;1.35;;;;;;;;;;4925834;29;20033;-85
2021/07/05 13:08:56;;;;;;;1.90;1.20;;;;;;;;;;4938571;28;20035;-83
2021/07/05 13:11:42;;;;;;;1.02;0.90;;;;;;;;;;4943708;28;20027;-82
2021/07/05 13:14:27;;;;;;;2.35;1.48;;;;;;;;;;4935241;28;20135;-83
2021/07/05 13:17:20;;;;;;;1.83;1.20;;;;;;;;;;4950974;28;20619;-82
2021/07/05 13:20:12;;;;;;;2.88;1.35;;;;;;;;;;4939935;28;20725;-85
2021/07/05 13:22:58;;;;;;;1.60;1.05;;;;;;;;;;4943559;28;20026;-84
2021/07/05 13:25:48;;;;;;;1.33;1.23;;;;;;;;;;4935318;29;20035;-87
2021/07/05 13:28:42;;;;;;;1.40;1.00;;;;;;;;;;4943200;28;20485;-87
2021/07/05 13:31:38;;;;;;;3.90;1.15;;;;;;;;;;4944670;28;20042;-86
2021/07/05 13:34:38;;;;;;;1.73;1.17;;;;;;;;;;4943575;28;20028;-86
2021/07/05 13:37:32;;;;;;;0.80;0.80;;;;;;;;;;4941596;28;20100;-85
2021/07/05 13:40:19;;;;;;;1.77;1.20;;;;;;;;;;4940516;28;20106;-84
2021/07/05 13:43:05;;;;;;;3.53;1.15;;;;;;;;;;4935569;28;20023;-83
2021/07/05 13:45:54;;;;;;;1.00;0.90;;;;;;;;;;4947130;28;20057;-85
2021/07/05 13:48:40;;;;;;;;;;;;;;;;;;4944872;28;20023;-84
2021/07/05 13:51:34;;;;;;;2.63;1.10;;;;;;;;;;4939011;28;19910;-82
2021/07/05 13:54:27;;;;;;;2.45;0.88;;;;;;;;;;4949946;28;20045;-85
2021/07/05 13:57:21;;;;;;;9.75;7.85;;;;;;;;;;4940607;28;20031;-89
2021/07/05 14:00:07;;;;;;;14.75;10.77;;;;;;;;;;4940978;28;20027;-88
2021/07/05 14:02:53;;;;;;;29.35;26.35;;;;;;;;;;4946956;28;20031;-88
2021/07/05 14:05:38;;;;;;;77.70;69.93;;;;;;;;;;4940305;28;20059;-88
2021/07/05 14:08:27;;;;;;;93.03;62.65;;;;;;;;;;4933556;29;20090;-88
2021/07/05 14:11:13;;;;;;;7.75;4.50;;;;;;;;;;4937896;28;20034;-85
2021/07/05 14:13:58;;;;;;;3.30;1.30;;;;;;;;;;4936207;28;20102;-87
2021/07/05 14:16:43;;;;;;;1.52;1.20;;;;;;;;;;4931786;28;20709;-86
2021/07/05 14:19:28;;;;;;;1.42;0.85;;;;;;;;;;4924127;28;20079;-87
2021/07/05 14:22:18;;;;;;;1.13;0.75;;;;;;;;;;4949372;28;20361;-88
2021/07/05 14:25:05;;;;;;;1.45;0.90;;;;;;;;;;4939210;28;20126;-89
2021/07/05 14:27:50;;;;;;;11.18;8.85;;;;;;;;;;4938144;28;20509;-88
2021/07/05 14:30:36;;;;;;;1.83;0.80;;;;;;;;;;4941344;28;20372;-88
2021/07/05 14:33:22;;;;;;;0.85;0.85;;;;;;;;;;4938044;28;20027;-85
2021/07/05 14:36:07;;;;;;;2.13;1.10;;;;;;;;;;4934078;29;20039;-84
2021/07/05 14:38:53;;;;;;;1.30;0.95;;;;;;;;;;4933912;28;20030;-86
2021/07/05 14:41:38;;;;;;;1.85;1.23;;;;;;;;;;4936234;28;20504;-89
2021/07/05 14:44:26;;;;;;;4.13;1.00;;;;;;;;;;4937754;29;20039;-87
2021/07/05 14:47:11;;;;;;;2.65;1.08;;;;;;;;;;4936966;29;20246;-87
2021/07/05 14:49:56;;;;;;;2.30;1.08;;;;;;;;;;4942182;28;20536;-86
2021/07/05 14:52:42;;;;;;;1.25;1.15;;;;;;;;;;4940371;28;20568;-87
2021/07/05 14:55:27;;;;;;;1.77;1.05;;;;;;;;;;4922396;28;20042;-88
2021/07/05 14:58:13;;;;;;;1.42;1.10;;;;;;;;;;4940633;28;20031;-87
2021/07/05 15:00:58;;;;;;;1.65;1.05;;;;;;;;;;4938415;28;20082;-89
2021/07/05 15:03:44;;;;;;;4.45;1.20;;;;;;;;;;4935708;28;20118;-86
2021/07/05 15:06:29;;;;;;;2.00;1.25;;;;;;;;;;4938388;28;20038;-88
2021/07/05 15:09:15;;;;;;;2.92;1.15;;;;;;;;;;4935971;28;20110;-90
2021/07/05 15:12:16;;;;;;;2.95;0.98;;;;;;;;;;4942822;28;20026;-88
2021/07/05 15:15:02;;;;;;;3.63;1.20;;;;;;;;;;4932186;28;20876;-87
2021/07/05 15:17:48;;;;;;;2.85;1.10;;;;;;;;;;4933283;28;20289;-86
2021/07/05 15:20:34;;;;;;;1.67;1.00;;;;;;;;;;4940371;28;20053;-84
2021/07/05 15:23:20;;;;;;;5.90;2.97;;;;;;;;;;4932505;28;20026;-86
2021/07/05 15:26:05;;;;;;;3.80;2.30;;;;;;;;;;4936219;28;20035;-88
2021/07/05 15:28:50;;;;;;;2.17;1.88;;;;;;;;;;4930675;28;20071;-85
2021/07/05 15:31:36;;;;;;;2.80;1.05;;;;;;;;;;4935347;28;20034;-87
2021/07/05 15:34:21;;;;;;;1.20;1.00;;;;;;;;;;4914192;28;20062;-82
2021/07/05 15:37:06;;;;;;;2.13;1.10;;;;;;;;;;4928884;28;20565;-85
2021/07/05 15:39:51;;;;;;;1.98;0.90;;;;;;;;;;4937451;28;20065;-88
2021/07/05 15:42:37;;;;;;;2.45;1.30;;;;;;;;;;4942103;29;20414;-85
2021/07/05 15:45:23;;;;;;;2.13;0.90;;;;;;;;;;4939726;28;20062;-83
2021/07/05 15:48:08;;;;;;;13.77;2.95;;;;;;;;;;4935386;29;20071;-86
2021/07/05 15:50:56;;;;;;;4.72;2.70;;;;;;;;;;4936105;28;20019;-86
2021/07/05 15:53:42;;;;;;;2.10;1.10;;;;;;;;;;4938573;29;20031;-84
2021/07/05 15:56:27;;;;;;;1.83;1.02;;;;;;;;;;4934227;28;20020;-85
2021/07/05 15:59:12;;;;;;;1.63;1.00;;;;;;;;;;4948022;28;20452;-86
2021/07/05 16:01:57;;;;;;;1.25;1.00;;;;;;;;;;4933549;28;20059;-85
2021/07/05 16:04:47;;;;;;;2.55;1.13;;;;;;;;;;4928331;28;20027;-90
2021/07/05 16:07:45;;;;;;;2.30;0.95;;;;;;;;;;4927602;29;20031;-93
2021/07/05 16:21:11;;;;;;;3.55;1.27;;;;;;;;;;4905766;29;20051;-91
2021/07/05 16:24:22;;;;;;;5.38;2.90;;;;;;;;;;4939545;29;20172;-93
2021/07/05 16:27:46;;;;;;;2.50;1.88;;;;;;;;;;4924901;29;20035;-92
2021/07/05 16:30:33;;;;;;;3.75;1.10;;;;;;;;;;4857685;29;20086;-90
2021/07/05 16:33:18;;;;;;;2.13;1.58;;;;;;;;;;4856221;29;20388;-91
2021/07/05 16:53:10;;;;;;;2.10;1.58;;;;;;;;;;4851778;29;20531;-94
2021/07/05 17:19:19;;;;;;;1.48;1.30;;;;;;;;;;5196300;23;20050;-91
2021/07/05 17:22:05;;;;;;;5.00;1.40;;;;;;;;;;4955132;28;20035;-91
2021/07/05 17:24:50;;;;;;;3.20;1.88;;;;;;;;;;4954772;28;20026;-91
2021/07/05 17:27:36;;;;;;;3.05;1.30;;;;;;;;;;4959006;28;20512;-92
2021/07/05 17:30:24;;;;;;;1.98;1.20;;;;;;;;;;4958845;28;20520;-93
2021/07/05 17:33:12;;;;;;;3.03;1.33;;;;;;;;;;4946877;28;20023;-93
2021/07/05 17:35:58;;;;;;;4.95;1.80;;;;;;;;;;4956225;28;20085;-89
2021/07/05 17:38:43;;;;;;;5.07;1.48;;;;;;;;;;4957187;28;20023;-90
2021/07/05 17:41:29;;;;;;;2.67;1.50;;;;;;;;;;4957529;28;20023;-91